Time;durP1;ratioP1;P1;durP2;ratioP2;P2;SDS_P1;SDS_P2;PMS_P1;PMS_P2;Temp;Humidity;BMP_temperature;BMP_pressure;BME280_temperature;BME280_humidity;BME280_pressure;Samples;Min_cycle;Max_cycle;Signal;HPM_P1;HPM_P2
2021/06/16 00:00:19;;;;;;;3.90;3.45;;;14.90;99.90;;;;;;5053119;28;20040;-84
2021/06/16 00:02:47;;;;;;;6.32;3.83;;;14.90;99.90;;;;;;5052728;28;20496;-84
2021/06/16 00:05:21;;;;;;;10.23;3.50;;;14.60;99.90;;;;;;5052599;28;20088;-84
2021/06/16 00:07:49;;;;;;;5.05;3.65;;;14.50;99.90;;;;;;5034879;28;20049;-84
2021/06/16 00:10:21;;;;;;;5.30;2.92;;;14.40;99.90;;;;;;5051397;28;20071;-84
2021/06/16 00:12:49;;;;;;;3.72;3.33;;;14.30;99.90;;;;;;5052462;28;20049;-83
2021/06/16 00:15:29;;;;;;;4.05;3.33;;;14.40;99.90;;;;;;5053667;28;20514;-82
2021/06/16 00:17:57;;;;;;;5.43;4.90;;;14.60;99.90;;;;;;5052247;28;20049;-83
2021/06/16 00:20:25;;;;;;;4.00;3.55;;;14.70;99.90;;;;;;5051247;28;20056;-83
2021/06/16 00:22:55;;;;;;;6.10;4.47;;;14.70;99.90;;;;;;5052542;28;20052;-83
2021/06/16 00:25:24;;;;;;;4.45;2.83;;;14.70;99.90;;;;;;5049403;28;20048;-84
2021/06/16 00:27:53;;;;;;;3.47;3.17;;;14.60;99.90;;;;;;5060074;28;20044;-83
2021/06/16 00:30:22;;;;;;;4.85;3.97;;;14.40;99.90;;;;;;5052539;28;20049;-84
2021/06/16 00:32:49;;;;;;;5.75;3.28;;;14.40;99.90;;;;;;5052885;28;20064;-83
2021/06/16 00:35:19;;;;;;;3.58;3.28;;;14.30;99.90;;;;;;5051315;28;20049;-84
2021/06/16 00:37:49;;;;;;;5.15;3.45;;;14.30;99.90;;;;;;5052549;28;20084;-84
2021/06/16 00:40:20;;;;;;;4.38;3.53;;;14.20;99.90;;;;;;5050590;28;20057;-83
2021/06/16 00:42:47;;;;;;;4.60;3.78;;;14.20;99.90;;;;;;5052638;28;20045;-83
2021/06/16 00:45:17;;;;;;;7.40;3.33;;;14.20;99.90;;;;;;5051415;28;20056;-83
2021/06/16 00:47:46;;;;;;;5.05;4.60;;;14.10;99.90;;;;;;5052571;28;20052;-83
2021/06/16 00:50:15;;;;;;;3.67;3.35;;;14.20;99.90;;;;;;5050944;28;20057;-83
2021/06/16 00:52:43;;;;;;;4.78;3.70;;;14.20;99.90;;;;;;5051643;28;20048;-83
2021/06/16 00:55:11;;;;;;;3.88;3.17;;;14.20;99.90;;;;;;5049067;28;20399;-84
2021/06/16 00:57:39;;;;;;;3.33;3.08;;;14.20;99.90;;;;;;5051262;28;20037;-84
2021/06/16 01:00:13;;;;;;;4.97;3.75;;;14.10;99.90;;;;;;5051780;28;20060;-84
2021/06/16 01:03:09;;;;;;;4.03;2.92;;;14.00;99.90;;;;;;5051440;28;20056;-84
2021/06/16 01:05:51;;;;;;;4.25;3.90;;;13.90;99.90;;;;;;5050461;28;20048;-84
2021/06/16 01:08:29;;;;;;;4.10;3.03;;;13.80;99.90;;;;;;5052016;28;20063;-84
2021/06/16 01:11:02;;;;;;;8.02;4.55;;;13.80;99.90;;;;;;5031484;28;20057;-84
2021/06/16 01:13:50;;;;;;;5.93;3.75;;;13.70;99.90;;;;;;5051069;28;20048;-84
2021/06/16 01:16:35;;;;;;;7.95;3.78;;;13.70;99.90;;;;;;5052344;28;20072;-84
2021/06/16 01:19:41;;;;;;;4.28;3.47;;;13.80;99.90;;;;;;5029505;28;20045;-83
2021/06/16 01:22:37;;;;;;;4.50;3.88;;;13.70;99.90;;;;;;5002989;28;20046;-84
2021/06/16 01:25:10;;;;;;;6.13;3.65;;;13.70;99.90;;;;;;5035803;28;20506;-84
2021/06/16 01:27:39;;;;;;;3.70;3.33;;;13.60;99.90;;;;;;5051798;28;20064;-84
2021/06/16 01:30:07;;;;;;;6.35;4.10;;;13.60;99.90;;;;;;5033717;28;20067;-84
2021/06/16 01:32:37;;;;;;;4.55;3.28;;;13.50;99.90;;;;;;5051355;28;20060;-84
2021/06/16 01:35:06;;;;;;;4.38;3.97;;;13.50;99.90;;;;;;5051315;28;20063;-84
2021/06/16 01:37:33;;;;;;;4.53;4.13;;;13.40;99.90;;;;;;5051408;28;20493;-84
2021/06/16 01:40:02;;;;;;;3.60;3.30;;;13.40;99.90;;;;;;5032000;28;20072;-83
2021/06/16 01:42:31;;;;;;;4.68;3.95;;;13.40;99.90;;;;;;5049495;28;20049;-84
2021/06/16 01:45:00;;;;;;;4.20;3.80;;;13.30;99.90;;;;;;5051152;28;20040;-84
2021/06/16 01:47:29;;;;;;;5.85;3.58;;;13.30;99.90;;;;;;5051229;28;20052;-84
2021/06/16 01:50:00;;;;;;;4.57;4.07;;;13.40;99.90;;;;;;5041475;28;20048;-84
2021/06/16 01:52:30;;;;;;;5.78;5.28;;;13.40;99.90;;;;;;5049575;28;20064;-83
2021/06/16 01:54:59;;;;;;;7.13;3.67;;;13.50;99.90;;;;;;5049828;28;20052;-83
2021/06/16 01:57:27;;;;;;;6.32;3.90;;;13.40;99.90;;;;;;5046397;28;20040;-84
2021/06/16 01:59:59;;;;;;;5.68;5.18;;;13.40;99.90;;;;;;5053387;28;20447;-84
2021/06/16 02:02:27;;;;;;;4.88;4.05;;;13.30;99.90;;;;;;5055097;28;20041;-83
2021/06/16 02:04:55;;;;;;;4.78;3.95;;;13.30;99.90;;;;;;5050275;28;20064;-84
2021/06/16 02:07:28;;;;;;;5.15;3.55;;;13.30;99.90;;;;;;5051489;28;20061;-84
2021/06/16 02:09:57;;;;;;;10.73;4.22;;;13.20;99.90;;;;;;5025237;28;20045;-84
2021/06/16 02:12:27;;;;;;;6.65;5.53;;;13.20;99.90;;;;;;5009388;28;20054;-84
2021/06/16 02:15:04;;;;;;;6.28;4.50;;;13.10;99.90;;;;;;5023557;28;20053;-84
2021/06/16 02:17:34;;;;;;;6.55;5.72;;;13.10;99.90;;;;;;5030979;28;20129;-83
2021/06/16 02:20:05;;;;;;;5.13;4.28;;;13.20;99.90;;;;;;4996507;28;20053;-83
2021/06/16 02:22:34;;;;;;;5.53;4.40;;;13.20;99.90;;;;;;5030627;28;20049;-83
2021/06/16 02:25:04;;;;;;;8.55;3.95;;;13.30;99.90;;;;;;5029101;28;20410;-83
2021/06/16 02:27:32;;;;;;;7.72;4.38;;;13.30;99.90;;;;;;5008004;28;20054;-84
2021/06/16 02:30:00;;;;;;;6.45;4.35;;;13.30;99.90;;;;;;5009635;28;20057;-84
2021/06/16 02:32:28;;;;;;;6.25;4.60;;;13.30;99.90;;;;;;5026648;28;20059;-83
2021/06/16 02:34:58;;;;;;;4.07;3.65;;;13.20;99.90;;;;;;5012228;28;20053;-84
2021/06/16 02:37:27;;;;;;;4.37;3.97;;;13.10;99.90;;;;;;5017827;28;20069;-84
2021/06/16 02:40:01;;;;;;;6.07;4.75;;;13.10;99.90;;;;;;4996658;28;20053;-83
2021/06/16 02:42:30;;;;;;;4.07;3.67;;;13.00;99.90;;;;;;5019618;28;20438;-83
2021/06/16 02:45:01;;;;;;;5.25;3.95;;;13.00;99.90;;;;;;5012173;28;20052;-83
2021/06/16 02:47:31;;;;;;;5.50;4.25;;;13.00;99.90;;;;;;5020618;28;20060;-83
2021/06/16 02:50:01;;;;;;;4.13;3.72;;;13.00;99.90;;;;;;5009241;28;20073;-84
2021/06/16 02:52:30;;;;;;;6.15;4.55;;;13.00;99.90;;;;;;5009720;28;20069;-84
2021/06/16 02:55:02;;;;;;;6.05;4.07;;;12.90;99.90;;;;;;5010284;28;20524;-83
2021/06/16 02:57:34;;;;;;;5.57;5.07;;;12.70;99.90;;;;;;5008647;28;20423;-83
2021/06/16 03:00:06;;;;;;;10.07;4.78;;;12.70;99.90;;;;;;5009602;28;20077;-84
2021/06/16 03:02:38;;;;;;;6.47;4.07;;;12.70;99.90;;;;;;4995153;28;20046;-84
2021/06/16 03:05:06;;;;;;;;;;;12.70;99.90;;;;;;5009797;28;20046;-83
2021/06/16 03:07:35;;;;;;;4.45;4.05;;;12.70;99.90;;;;;;5010347;28;20286;-83
2021/06/16 03:10:04;;;;;;;8.93;4.47;;;12.70;99.90;;;;;;5010481;28;20046;-83
2021/06/16 03:12:34;;;;;;;7.97;4.57;;;12.60;99.90;;;;;;5023133;28;20061;-84
2021/06/16 03:15:05;;;;;;;6.07;5.15;;;12.60;99.90;;;;;;5030245;28;20060;-84
2021/06/16 03:17:34;;;;;;;18.45;4.40;;;12.60;99.90;;;;;;5029922;28;20045;-84
2021/06/16 03:20:05;;;;;;;6.80;4.38;;;12.70;99.90;;;;;;5028451;28;20061;-84
2021/06/16 03:22:35;;;;;;;6.32;5.72;;;12.60;99.90;;;;;;5029470;28;20045;-83
2021/06/16 03:25:04;;;;;;;5.93;5.10;;;12.60;99.90;;;;;;5028770;28;20041;-83
2021/06/16 03:27:33;;;;;;;6.15;5.20;;;12.60;99.90;;;;;;5027978;28;20364;-84
2021/06/16 03:30:02;;;;;;;7.00;4.38;;;12.70;99.90;;;;;;5029112;28;20401;-84
2021/06/16 03:32:31;;;;;;;5.10;4.60;;;12.70;99.90;;;;;;5046709;28;20754;-84
2021/06/16 03:34:59;;;;;;;4.93;4.30;;;12.60;99.90;;;;;;5052737;28;20060;-84
2021/06/16 03:37:29;;;;;;;5.82;5.32;;;12.50;99.90;;;;;;5039464;28;20037;-84
2021/06/16 03:39:58;;;;;;;9.82;6.65;;;12.40;99.90;;;;;;5034365;28;20062;-84
2021/06/16 03:42:27;;;;;;;7.63;5.57;;;12.50;99.90;;;;;;5030580;28;20041;-84
2021/06/16 03:44:56;;;;;;;6.95;5.00;;;12.60;99.90;;;;;;5032595;28;20045;-83
2021/06/16 03:47:28;;;;;;;7.97;6.10;;;12.60;99.90;;;;;;5033420;28;20060;-83
2021/06/16 03:49:57;;;;;;;7.10;5.53;;;12.80;99.90;;;;;;5032689;28;20390;-83
2021/06/16 03:52:26;;;;;;;6.45;5.90;;;12.90;99.90;;;;;;5032551;28;20057;-83
2021/06/16 03:54:55;;;;;;;4.45;3.97;;;12.90;99.90;;;;;;5032909;28;20053;-83
2021/06/16 03:57:23;;;;;;;7.93;6.72;;;12.90;99.90;;;;;;5029571;28;20052;-83
2021/06/16 03:59:52;;;;;;;7.07;4.53;;;12.90;99.90;;;;;;5015955;28;20058;-83
2021/06/16 04:02:20;;;;;;;8.65;5.57;;;12.90;99.90;;;;;;4998616;28;20050;-83
2021/06/16 04:04:49;;;;;;;5.40;4.10;;;13.00;99.90;;;;;;5032983;28;20053;-83
2021/06/16 04:07:19;;;;;;;7.00;5.07;;;13.10;99.90;;;;;;5033495;28;20066;-83
2021/06/16 04:09:52;;;;;;;9.93;5.55;;;13.30;99.90;;;;;;5032367;28;20064;-83
2021/06/16 04:12:21;;;;;;;5.57;5.07;;;13.40;99.90;;;;;;5030451;28;20037;-83
2021/06/16 04:14:50;;;;;;;9.25;4.95;;;13.50;99.90;;;;;;5031802;28;20057;-83
2021/06/16 04:17:22;;;;;;;5.47;4.63;;;13.60;99.90;;;;;;5032362;28;20049;-83
2021/06/16 04:19:51;;;;;;;7.03;4.80;;;13.70;99.90;;;;;;5015101;28;20060;-83
2021/06/16 04:22:20;;;;;;;7.13;4.53;;;13.70;99.90;;;;;;5031751;28;20056;-83
2021/06/16 04:24:48;;;;;;;9.60;5.43;;;13.70;99.90;;;;;;5032862;28;20610;-84
2021/06/16 04:27:16;;;;;;;5.30;4.10;;;13.80;99.90;;;;;;5032392;28;20049;-83
2021/06/16 04:29:44;;;;;;;9.25;4.43;;;13.90;99.90;;;;;;5032700;28;20049;-83
2021/06/16 04:32:14;;;;;;;7.05;4.25;;;14.00;99.90;;;;;;5032938;28;20057;-83
2021/06/16 04:34:42;;;;;;;9.18;4.88;;;14.10;99.90;;;;;;5031500;28;20041;-83
2021/06/16 04:37:10;;;;;;;8.02;5.90;;;14.20;99.90;;;;;;5031459;28;20053;-83
2021/06/16 04:39:42;;;;;;;8.43;6.65;;;14.30;99.90;;;;;;5032501;28;20081;-83
2021/06/16 04:42:10;;;;;;;8.55;6.68;;;14.50;99.90;;;;;;5014549;28;20566;-84
2021/06/16 04:44:37;;;;;;;5.28;4.68;;;14.60;99.90;;;;;;5031304;28;20046;-83
2021/06/16 04:47:05;;;;;;;10.75;5.00;;;14.80;99.90;;;;;;5024500;28;20049;-83
2021/06/16 04:49:34;;;;;;;14.20;6.68;;;14.90;99.90;;;;;;5031568;28;20047;-83
2021/06/16 04:52:02;;;;;;;5.00;4.50;;;15.00;99.90;;;;;;5031409;28;20049;-86
2021/06/16 04:54:30;;;;;;;6.90;6.15;;;15.20;99.90;;;;;;5031583;28;20506;-83
2021/06/16 04:57:04;;;;;;;6.03;5.28;;;15.40;99.90;;;;;;5032509;28;20772;-85
2021/06/16 04:59:32;;;;;;;9.77;5.32;;;15.50;99.90;;;;;;5031993;28;20061;-84
2021/06/16 05:02:01;;;;;;;6.10;5.55;;;15.70;99.90;;;;;;5043179;28;20052;-83
2021/06/16 05:04:30;;;;;;;5.32;4.85;;;15.90;99.90;;;;;;5052037;28;20052;-84
2021/06/16 05:06:58;;;;;;;5.72;5.13;;;16.00;99.90;;;;;;5049903;28;20059;-83
2021/06/16 05:09:26;;;;;;;4.53;4.13;;;16.30;99.90;;;;;;5031759;28;20065;-84
2021/06/16 05:11:54;;;;;;;6.45;4.88;;;16.50;99.90;;;;;;5032637;28;20101;-84
2021/06/16 05:14:21;;;;;;;5.22;4.75;;;16.70;99.90;;;;;;5013941;28;20048;-84
2021/06/16 05:16:50;;;;;;;8.43;5.40;;;16.70;99.90;;;;;;5012452;28;20435;-83
2021/06/16 05:19:21;;;;;;;6.93;6.32;;;16.80;99.90;;;;;;5012583;28;20419;-86
2021/06/16 05:21:50;;;;;;;6.28;5.22;;;16.90;99.90;;;;;;5020897;28;20042;-85
2021/06/16 05:24:20;;;;;;;7.43;4.82;;;16.90;99.90;;;;;;5032650;28;20057;-84
2021/06/16 05:26:48;;;;;;;5.03;4.53;;;16.90;99.90;;;;;;5031156;28;20049;-85
2021/06/16 05:29:15;;;;;;;7.35;5.18;;;16.90;99.90;;;;;;5031100;28;20911;-84
2021/06/16 05:31:43;;;;;;;13.88;5.18;;;17.00;99.90;;;;;;5023672;28;20460;-86
2021/06/16 05:34:11;;;;;;;6.22;5.57;;;17.20;99.90;;;;;;5033792;28;20060;-86
2021/06/16 05:36:39;;;;;;;4.82;4.38;;;17.40;99.90;;;;;;5043826;28;20065;-84
2021/06/16 05:39:07;;;;;;;10.82;4.95;;;17.50;99.90;;;;;;5032350;28;20061;-86
2021/06/16 05:41:35;;;;;;;7.95;5.30;;;17.60;99.90;;;;;;5031715;28;20045;-86
2021/06/16 05:44:03;;;;;;;7.82;4.75;;;17.80;99.90;;;;;;4998572;28;20050;-86
2021/06/16 05:46:31;;;;;;;11.02;5.40;;;17.90;99.90;;;;;;5031209;28;20438;-85
2021/06/16 05:49:00;;;;;;;6.97;4.53;;;17.80;99.90;;;;;;5031390;28;20046;-84
2021/06/16 05:51:28;;;;;;;7.25;4.75;;;18.10;99.90;;;;;;5016941;28;20061;-85
2021/06/16 05:53:56;;;;;;;4.68;3.50;;;18.30;99.90;;;;;;5011211;28;20048;-85
2021/06/16 05:56:24;;;;;;;7.28;5.47;;;18.40;99.90;;;;;;5024078;28;20057;-85
2021/06/16 05:58:51;;;;;;;6.45;5.20;;;18.50;99.90;;;;;;5031431;28;20057;-86
2021/06/16 06:01:19;;;;;;;13.55;4.78;;;18.60;99.90;;;;;;5018908;28;20508;-86
2021/06/16 06:03:48;;;;;;;4.57;3.42;;;18.70;99.90;;;;;;5031272;28;20390;-85
2021/06/16 06:06:17;;;;;;;5.03;4.25;;;18.80;99.90;;;;;;5026826;28;20045;-86
2021/06/16 06:08:49;;;;;;;6.05;4.65;;;19.00;99.90;;;;;;5027494;28;20044;-86
2021/06/16 06:11:18;;;;;;;8.45;4.68;;;19.00;99.90;;;;;;5020978;28;20384;-86
2021/06/16 06:13:47;;;;;;;4.00;3.60;;;19.00;99.90;;;;;;5037792;28;20049;-85
2021/06/16 06:16:15;;;;;;;3.75;3.45;;;19.10;99.90;;;;;;5051789;28;20076;-86
2021/06/16 06:18:43;;;;;;;6.53;4.43;;;19.20;99.90;;;;;;5050379;28;20033;-86
2021/06/16 06:21:11;;;;;;;4.97;2.97;;;19.30;99.90;;;;;;5049206;28;20083;-87
2021/06/16 06:23:39;;;;;;;6.07;3.22;;;19.30;99.90;;;;;;5041278;28;20060;-86
2021/06/16 06:26:08;;;;;;;6.68;5.05;;;19.20;99.90;;;;;;5031206;28;20064;-87
2021/06/16 06:28:38;;;;;;;5.45;4.53;;;19.40;99.90;;;;;;5030360;28;20057;-87
2021/06/16 06:31:09;;;;;;;5.68;4.28;;;19.40;99.90;;;;;;5033678;28;20049;-87
2021/06/16 06:33:38;;;;;;;4.32;3.95;;;19.50;99.90;;;;;;5048548;28;20052;-87
2021/06/16 06:36:06;;;;;;;7.65;3.97;;;19.50;99.90;;;;;;5046743;28;20053;-86
2021/06/16 06:38:34;;;;;;;5.45;3.15;;;19.60;99.90;;;;;;5027204;28;20042;-86
2021/06/16 06:41:02;;;;;;;4.22;3.92;;;19.80;99.90;;;;;;5009662;28;20037;-87
2021/06/16 06:43:30;;;;;;;3.72;3.40;;;19.90;99.90;;;;;;5011685;28;20052;-87
2021/06/16 06:45:58;;;;;;;4.50;4.10;;;19.90;99.90;;;;;;5010345;28;20483;-86
2021/06/16 06:48:28;;;;;;;6.88;5.20;;;20.00;99.90;;;;;;5001709;28;20064;-87
2021/06/16 06:50:59;;;;;;;10.52;4.82;;;20.20;99.90;;;;;;5028339;28;20065;-82
2021/06/16 06:53:29;;;;;;;5.20;4.18;;;20.10;99.90;;;;;;5029603;28;20086;-81
2021/06/16 06:55:57;;;;;;;5.65;4.20;;;20.20;99.90;;;;;;5030196;28;20068;-85
2021/06/16 06:58:26;;;;;;;5.03;3.70;;;20.20;99.90;;;;;;5028862;28;20045;-84
2021/06/16 07:00:53;;;;;;;3.90;3.50;;;20.40;99.90;;;;;;5010046;28;20049;-84
2021/06/16 07:03:21;;;;;;;4.22;3.78;;;20.70;99.90;;;;;;5029804;28;20050;-84
2021/06/16 07:05:49;;;;;;;8.18;3.45;;;20.80;99.90;;;;;;5027984;28;20467;-84
2021/06/16 07:08:17;;;;;;;12.43;4.13;;;20.90;99.90;;;;;;5033051;28;20398;-83
2021/06/16 07:10:45;;;;;;;3.88;3.10;;;21.40;99.20;;;;;;5034594;28;20060;-84
2021/06/16 07:13:13;;;;;;;4.35;3.95;;;22.10;96.10;;;;;;5052388;28;20041;-85
2021/06/16 07:15:41;;;;;;;5.70;4.47;;;23.20;94.90;;;;;;5036462;28;20049;-84
2021/06/16 07:18:09;;;;;;;4.43;4.03;;;24.20;93.90;;;;;;5020714;28;20392;-84
2021/06/16 07:20:37;;;;;;;5.97;4.13;;;24.90;92.30;;;;;;5012775;28;20403;-85
2021/06/16 07:23:05;;;;;;;6.35;4.13;;;25.50;91.20;;;;;;5027550;28;20049;-84
2021/06/16 07:25:33;;;;;;;6.40;3.60;;;25.80;90.60;;;;;;5032471;28;20535;-83
2021/06/16 07:28:01;;;;;;;4.75;3.17;;;25.50;90.50;;;;;;5015459;28;20057;-84
2021/06/16 07:30:29;;;;;;;7.50;3.85;;;25.60;84.90;;;;;;5036716;28;20041;-84
2021/06/16 07:32:58;;;;;;;4.60;3.45;;;25.30;90.30;;;;;;5045672;28;20051;-84
2021/06/16 07:35:26;;;;;;;3.20;2.67;;;25.00;91.50;;;;;;5036065;28;20505;-87
2021/06/16 07:37:54;;;;;;;2.55;2.38;;;25.40;88.30;;;;;;5033089;28;20041;-86
2021/06/16 07:40:22;;;;;;;5.00;3.58;;;26.80;84.90;;;;;;5032365;28;20494;-83
2021/06/16 07:42:50;;;;;;;9.30;4.03;;;27.90;81.30;;;;;;5014645;28;20054;-83
2021/06/16 07:45:18;;;;;;;3.40;3.10;;;27.40;77.90;;;;;;5014947;28;20038;-84
2021/06/16 07:47:48;;;;;;;3.90;3.58;;;26.60;83.60;;;;;;5032907;28;20049;-85
2021/06/16 07:50:21;;;;;;;3.42;2.80;;;25.90;85.60;;;;;;5029179;28;20415;-85
2021/06/16 07:52:49;;;;;;;5.38;3.65;;;25.20;86.20;;;;;;5024969;28;20042;-84
2021/06/16 07:55:17;;;;;;;3.03;2.72;;;24.50;87.60;;;;;;5028014;28;20061;-86
2021/06/16 07:57:45;;;;;;;9.45;2.28;;;24.20;89.90;;;;;;5031700;28;20042;-86
2021/06/16 08:00:14;;;;;;;8.02;4.03;;;24.50;88.40;;;;;;5024379;28;20429;-85
2021/06/16 08:02:42;;;;;;;4.57;3.60;;;24.40;85.30;;;;;;5033345;28;20390;-86
2021/06/16 08:05:13;;;;;;;2.83;2.63;;;24.20;88.90;;;;;;5031485;28;20053;-88
2021/06/16 08:07:44;;;;;;;4.97;2.25;;;24.10;87.10;;;;;;5032267;28;20399;-87
2021/06/16 08:10:13;;;;;;;2.78;2.55;;;23.90;89.10;;;;;;5038663;28;20049;-87
2021/06/16 08:12:41;;;;;;;3.67;3.38;;;23.90;90.00;;;;;;5052425;28;20434;-86
2021/06/16 08:15:11;;;;;;;2.72;2.53;;;23.90;90.40;;;;;;5027190;28;20057;-87
2021/06/16 08:17:41;;;;;;;3.03;2.67;;;23.90;88.10;;;;;;5031269;28;20042;-88
2021/06/16 08:20:10;;;;;;;5.40;2.42;;;24.00;88.00;;;;;;5032482;28;20413;-87
2021/06/16 08:22:39;;;;;;;6.45;4.03;;;24.00;86.80;;;;;;5031598;28;20407;-85
2021/06/16 08:25:11;;;;;;;3.30;2.13;;;23.90;89.40;;;;;;5031423;28;20046;-86
2021/06/16 08:27:40;;;;;;;2.75;2.45;;;23.90;88.10;;;;;;5032291;28;20062;-83
2021/06/16 08:30:10;;;;;;;5.30;2.05;;;23.90;89.30;;;;;;5039673;28;20044;-85
2021/06/16 08:32:39;;;;;;;2.10;1.83;;;23.90;90.30;;;;;;5051720;28;20419;-84
2021/06/16 08:35:08;;;;;;;2.55;2.35;;;23.90;90.00;;;;;;5039560;28;20060;-84
2021/06/16 08:37:38;;;;;;;2.33;2.13;;;23.90;85.60;;;;;;5031441;28;20052;-83
2021/06/16 08:40:07;;;;;;;2.25;2.05;;;23.80;87.10;;;;;;5031045;28;20521;-83
2021/06/16 08:42:36;;;;;;;2.38;2.25;;;23.80;90.60;;;;;;5031646;28;20050;-82
2021/06/16 08:45:07;;;;;;;2.55;2.15;;;23.70;84.80;;;;;;5019652;28;20056;-83
2021/06/16 08:47:35;;;;;;;3.20;2.00;;;23.80;89.20;;;;;;5052056;28;20071;-86
2021/06/16 08:50:10;;;;;;;3.28;2.95;;;23.90;85.40;;;;;;5015289;28;20049;-78
2021/06/16 08:52:39;;;;;;;2.00;1.90;;;24.00;86.50;;;;;;5051011;28;20060;-91
2021/06/16 08:55:09;;;;;;;3.00;2.70;;;24.10;89.20;;;;;;5054579;28;20062;-87
2021/06/16 08:57:42;;;;;;;4.43;2.20;;;24.10;87.90;;;;;;5052827;28;20037;-92
2021/06/16 09:00:12;;;;;;;3.95;2.78;;;24.30;86.60;;;;;;5053381;28;20052;-86
2021/06/16 09:02:41;;;;;;;6.47;3.47;;;24.30;82.20;;;;;;5027197;28;20041;-90
2021/06/16 09:05:09;;;;;;;3.42;2.22;;;24.20;85.60;;;;;;5034180;28;20049;-88
2021/06/16 09:07:40;;;;;;;3.42;2.20;;;24.20;87.50;;;;;;5053682;28;20417;-88
2021/06/16 09:10:16;;;;;;;2.92;2.47;;;24.30;85.00;;;;;;5052572;28;20049;-91
2021/06/16 09:12:53;;;;;;;3.75;2.35;;;24.40;84.20;;;;;;5053937;28;20048;-89
2021/06/16 09:15:36;;;;;;;4.20;2.20;;;24.50;84.10;;;;;;5106253;27;20134;-86
2021/06/16 09:18:06;;;;;;;7.20;2.95;;;24.50;84.90;;;;;;5063492;27;20082;-87
2021/06/16 09:20:47;;;;;;;3.08;2.78;;;24.60;84.10;;;;;;5024582;28;20048;-85
2021/06/16 09:23:22;;;;;;;;;;;24.60;83.90;;;;;;5069345;28;20053;-87
2021/06/16 09:26:10;;;;;;;3.55;2.72;;;24.60;81.70;;;;;;5064395;28;19921;-88
2021/06/16 09:28:42;;;;;;;3.55;2.42;;;24.60;83.80;;;;;;5051368;28;20056;-89
2021/06/16 09:31:13;;;;;;;4.57;2.65;;;24.60;82.20;;;;;;5067754;28;20053;-87
2021/06/16 09:33:42;;;;;;;3.35;2.65;;;24.60;84.50;;;;;;5050688;28;20379;-87
2021/06/16 09:36:15;;;;;;;3.83;3.53;;;24.60;82.50;;;;;;5067297;28;20055;-86
2021/06/16 09:38:47;;;;;;;3.30;2.45;;;24.60;84.30;;;;;;5065712;28;20037;-86
2021/06/16 09:41:20;;;;;;;2.67;2.47;;;24.70;83.80;;;;;;5064760;28;20049;-83
2021/06/16 09:43:54;;;;;;;2.72;2.53;;;24.80;88.60;;;;;;5049980;28;20061;-83
2021/06/16 09:46:22;;;;;;;2.03;1.83;;;24.70;80.60;;;;;;5064583;28;20052;-85
2021/06/16 09:48:50;;;;;;;3.50;3.08;;;24.70;81.50;;;;;;5065934;28;20044;-84
2021/06/16 09:51:28;;;;;;;2.67;2.47;;;24.70;88.20;;;;;;5065166;28;20053;-85
2021/06/16 09:54:19;;;;;;;5.75;2.80;;;24.70;79.60;;;;;;5067343;28;20037;-87
2021/06/16 09:57:03;;;;;;;2.80;2.60;;;24.80;80.40;;;;;;5066787;28;20047;-86
2021/06/16 09:59:35;;;;;;;4.55;2.08;;;24.80;81.00;;;;;;5065950;28;20310;-86
2021/06/16 10:02:03;;;;;;;3.78;3.00;;;24.80;79.60;;;;;;5064993;28;20045;-89
2021/06/16 10:04:34;;;;;;;3.15;2.30;;;24.90;85.00;;;;;;5064835;28;20524;-84
2021/06/16 10:07:25;;;;;;;2.13;2.03;;;25.00;78.30;;;;;;5047005;28;20057;-85
2021/06/16 10:09:59;;;;;;;2.92;2.47;;;24.90;76.70;;;;;;5045197;28;20067;-85
2021/06/16 10:12:35;;;;;;;3.17;2.75;;;24.80;73.60;;;;;;5054372;28;20045;-87
2021/06/16 10:15:08;;;;;;;4.00;2.42;;;24.70;77.30;;;;;;5061747;28;20065;-86
2021/06/16 10:17:37;;;;;;;3.05;2.13;;;24.70;78.10;;;;;;5045187;28;20045;-86
2021/06/16 10:20:07;;;;;;;2.72;2.38;;;24.70;74.70;;;;;;5055680;28;20478;-86
2021/06/16 10:22:35;;;;;;;2.30;2.10;;;24.70;76.90;;;;;;5084590;28;20036;-86
2021/06/16 10:25:04;;;;;;;7.15;3.30;;;24.70;79.30;;;;;;5083404;28;20063;-86
2021/06/16 10:27:35;;;;;;;6.60;1.92;;;24.90;80.50;;;;;;5055279;28;20048;-84
2021/06/16 10:30:15;;;;;;;131.13;17.33;;;24.90;81.00;;;;;;5072583;28;20052;-83
2021/06/16 10:32:46;;;;;;;3.85;3.47;;;24.90;81.00;;;;;;5073303;28;20044;-81
2021/06/16 10:35:34;;;;;;;3.05;2.28;;;25.00;81.70;;;;;;5071863;28;20055;-81
2021/06/16 10:38:09;;;;;;;8.50;2.80;;;25.20;76.40;;;;;;5071680;28;20044;-83
2021/06/16 10:40:45;;;;;;;9.35;2.38;;;25.20;79.20;;;;;;5066659;28;20045;-81
2021/06/16 10:43:16;;;;;;;2.63;1.85;;;25.20;81.30;;;;;;5063903;28;20078;-82
2021/06/16 10:45:52;;;;;;;4.70;4.05;;;25.30;81.20;;;;;;5069473;28;20040;-79
2021/06/16 10:48:21;;;;;;;3.08;2.70;;;25.40;79.50;;;;;;5064982;28;20041;-79
2021/06/16 10:50:50;;;;;;;4.68;3.15;;;25.40;81.10;;;;;;5070544;28;20398;-80
2021/06/16 10:53:20;;;;;;;3.13;2.75;;;25.50;80.80;;;;;;5071538;28;20040;-81
2021/06/16 10:55:54;;;;;;;2.90;2.67;;;25.50;83.50;;;;;;5072995;28;20048;-79
2021/06/16 10:58:44;;;;;;;3.13;2.83;;;25.50;77.80;;;;;;5067347;28;20638;-79
2021/06/16 11:01:18;;;;;;;4.90;2.63;;;25.50;76.90;;;;;;5071777;28;20044;-79
2021/06/16 11:03:47;;;;;;;5.97;2.45;;;25.50;79.00;;;;;;5071159;28;20045;-79
2021/06/16 11:06:36;;;;;;;4.65;2.22;;;25.50;78.40;;;;;;5071413;28;20037;-79
2021/06/16 11:09:15;;;;;;;5.90;2.50;;;25.50;79.00;;;;;;5072233;28;20040;-79
2021/06/16 11:12:00;;;;;;;2.63;1.92;;;25.60;75.20;;;;;;5072597;28;20475;-79
2021/06/16 11:14:32;;;;;;;3.35;2.55;;;25.70;76.70;;;;;;5071978;28;20049;-79
2021/06/16 11:17:01;;;;;;;3.70;2.35;;;25.80;75.00;;;;;;5068750;28;20048;-79
2021/06/16 11:19:35;;;;;;;4.80;2.50;;;25.70;74.00;;;;;;5052151;28;20057;-79
2021/06/16 11:22:11;;;;;;;4.90;2.40;;;25.60;71.60;;;;;;5051031;28;20033;-79
2021/06/16 11:25:17;;;;;;;3.78;2.10;;;25.60;70.40;;;;;;5051812;28;20061;-79
2021/06/16 11:27:54;;;;;;;3.20;2.10;;;25.70;71.00;;;;;;5052587;28;20056;-79
2021/06/16 11:30:40;;;;;;;4.45;2.17;;;25.90;72.50;;;;;;5051562;28;20056;-79
2021/06/16 11:35:50;;;;;;;2.70;2.42;;;25.90;77.30;;;;;;5066837;28;20402;-77
2021/06/16 11:38:21;;;;;;;2.88;1.42;;;25.90;77.00;;;;;;5070782;28;20490;-77
2021/06/16 11:40:54;;;;;;;2.22;2.05;;;25.90;73.80;;;;;;5071623;28;20048;-78
2021/06/16 11:43:32;;;;;;;1.55;1.40;;;25.90;73.40;;;;;;5071794;28;20045;-78
2021/06/16 11:46:02;;;;;;;3.40;1.58;;;25.90;68.20;;;;;;5070890;28;20048;-78
2021/06/16 11:48:30;;;;;;;5.15;1.95;;;26.00;68.80;;;;;;5071445;28;20060;-79
2021/06/16 11:50:58;;;;;;;2.30;1.52;;;26.00;74.00;;;;;;5061049;28;20064;-79
2021/06/16 11:53:32;;;;;;;1.33;1.20;;;26.00;71.60;;;;;;5051472;28;20482;-78
2021/06/16 11:56:03;;;;;;;2.03;1.52;;;26.10;67.40;;;;;;5051597;28;20056;-78
2021/06/16 11:58:35;;;;;;;2.22;1.85;;;26.00;66.80;;;;;;5051040;28;20052;-77
2021/06/16 12:01:09;;;;;;;2.08;1.88;;;26.00;66.00;;;;;;5054088;28;20056;-78
2021/06/16 12:03:40;;;;;;;2.85;1.80;;;26.00;68.00;;;;;;5071258;28;20498;-78
2021/06/16 12:06:12;;;;;;;2.08;1.85;;;26.10;68.30;;;;;;5068910;28;20516;-78
2021/06/16 12:08:42;;;;;;;4.55;1.70;;;26.20;69.30;;;;;;5071142;28;20063;-77
2021/06/16 12:11:17;;;;;;;3.47;2.15;;;26.30;69.10;;;;;;5071314;28;20053;-78
2021/06/16 12:13:54;;;;;;;2.95;1.92;;;26.30;66.60;;;;;;5070874;28;20049;-78
2021/06/16 12:16:36;;;;;;;3.63;1.52;;;26.30;68.90;;;;;;5071064;28;20048;-78
2021/06/16 12:19:11;;;;;;;1.63;1.42;;;26.30;67.90;;;;;;5084532;28;20055;-77
2021/06/16 12:21:40;;;;;;;1.83;1.45;;;26.30;69.50;;;;;;5069708;28;20055;-77
2021/06/16 12:24:21;;;;;;;6.13;2.28;;;26.30;67.30;;;;;;5070875;28;20544;-78
2021/06/16 12:26:57;;;;;;;1.77;1.65;;;26.30;64.70;;;;;;5070444;28;20056;-84
2021/06/16 12:29:25;;;;;;;4.18;1.92;;;26.30;68.50;;;;;;5069492;28;20115;-85
2021/06/16 12:31:55;;;;;;;5.72;1.70;;;26.30;63.60;;;;;;5068935;28;20055;-83
2021/06/16 12:34:32;;;;;;;1.87;1.73;;;26.40;66.20;;;;;;5070649;28;20520;-83
2021/06/16 12:37:05;;;;;;;1.10;1.00;;;26.40;61.70;;;;;;5069883;28;20048;-85
2021/06/16 12:39:33;;;;;;;2.13;1.92;;;26.40;62.50;;;;;;5071110;28;20052;-86
2021/06/16 12:42:06;;;;;;;6.32;1.88;;;26.40;65.00;;;;;;5068967;28;20052;-85
2021/06/16 12:44:37;;;;;;;3.08;1.95;;;26.40;64.80;;;;;;5070034;28;20052;-85
2021/06/16 12:47:19;;;;;;;2.78;1.88;;;26.40;69.40;;;;;;5071239;28;20060;-84
2021/06/16 12:49:54;;;;;;;1.40;1.30;;;26.50;61.20;;;;;;5051970;28;20051;-84
2021/06/16 12:52:29;;;;;;;1.77;1.45;;;26.60;62.30;;;;;;5071182;28;20524;-89
2021/06/16 12:55:15;;;;;;;2.00;1.23;;;26.60;69.00;;;;;;5067939;28;20413;-88
2021/06/16 12:57:56;;;;;;;2.17;1.58;;;26.50;64.70;;;;;;5069150;28;20059;-88
2021/06/16 13:00:30;;;;;;;1.92;1.20;;;26.60;64.10;;;;;;5061565;28;20055;-88
2021/06/16 13:03:24;;;;;;;2.88;1.77;;;26.60;66.10;;;;;;5049587;28;20045;-89
2021/06/16 13:06:04;;;;;;;5.70;1.98;;;26.70;66.30;;;;;;5062143;28;20044;-89
2021/06/16 13:08:40;;;;;;;4.53;2.20;;;26.70;61.90;;;;;;5052146;28;20504;-88
2021/06/16 13:11:27;;;;;;;2.42;1.67;;;26.80;60.00;;;;;;5070580;28;20067;-88